sensor_id;sensor_type;location;lat;lon;timestamp;P1;durP1;ratioP1;P2;durP2;ratioP2
22284;SDS011;11311;52.192;20.900;2023-02-28T00:02:00;20.42;;;11.38;;
22284;SDS011;11311;52.192;20.900;2023-02-28T00:04:29;16.45;;;10.40;;
22284;SDS011;11311;52.192;20.900;2023-02-28T00:06:58;16.77;;;9.47;;
22284;SDS011;11311;52.192;20.900;2023-02-28T00:09:28;17.95;;;11.07;;
22284;SDS011;11311;52.192;20.900;2023-02-28T00:11:58;12.77;;;8.10;;
22284;SDS011;11311;52.192;20.900;2023-02-28T00:14:32;22.05;;;13.10;;
22284;SDS011;11311;52.192;20.900;2023-02-28T00:17:01;21.15;;;12.45;;
22284;SDS011;11311;52.192;20.900;2023-02-28T00:19:30;19.23;;;11.48;;
22284;SDS011;11311;52.192;20.900;2023-02-28T00:22:00;20.00;;;11.93;;
22284;SDS011;11311;52.192;20.900;2023-02-28T00:24:29;11.93;;;8.20;;
22284;SDS011;11311;52.192;20.900;2023-02-28T00:26:58;20.50;;;12.03;;
22284;SDS011;11311;52.192;20.900;2023-02-28T00:29:27;17.30;;;9.90;;
22284;SDS011;11311;52.192;20.900;2023-02-28T00:31:58;21.03;;;11.93;;
22284;SDS011;11311;52.192;20.900;2023-02-28T00:34:27;22.42;;;11.85;;
22284;SDS011;11311;52.192;20.900;2023-02-28T00:36:57;20.10;;;12.93;;
22284;SDS011;11311;52.192;20.900;2023-02-28T00:39:26;19.83;;;11.33;;
22284;SDS011;11311;52.192;20.900;2023-02-28T00:41:57;20.73;;;11.73;;
22284;SDS011;11311;52.192;20.900;2023-02-28T00:44:26;19.33;;;12.55;;
22284;SDS011;11311;52.192;20.900;2023-02-28T00:46:56;22.58;;;12.20;;
22284;SDS011;11311;52.192;20.900;2023-02-28T00:49:27;18.60;;;12.52;;
22284;SDS011;11311;52.192;20.900;2023-02-28T00:51:56;18.88;;;11.48;;
22284;SDS011;11311;52.192;20.900;2023-02-28T00:54:26;23.20;;;13.30;;
22284;SDS011;11311;52.192;20.900;2023-02-28T00:56:55;18.75;;;9.68;;
22284;SDS011;11311;52.192;20.900;2023-02-28T00:59:24;25.15;;;11.88;;
22284;SDS011;11311;52.192;20.900;2023-02-28T01:01:53;17.63;;;12.10;;
22284;SDS011;11311;52.192;20.900;2023-02-28T01:04:26;20.77;;;12.32;;
22284;SDS011;11311;52.192;20.900;2023-02-28T01:06:56;21.50;;;12.32;;
22284;SDS011;11311;52.192;20.900;2023-02-28T01:09:25;19.03;;;10.37;;
22284;SDS011;11311;52.192;20.900;2023-02-28T01:11:54;12.13;;;9.00;;
22284;SDS011;11311;52.192;20.900;2023-02-28T01:14:24;14.68;;;9.80;;
22284;SDS011;11311;52.192;20.900;2023-02-28T01:16:52;22.70;;;13.10;;
22284;SDS011;11311;52.192;20.900;2023-02-28T01:19:21;22.55;;;11.77;;
22284;SDS011;11311;52.192;20.900;2023-02-28T01:21:52;20.90;;;12.30;;
22284;SDS011;11311;52.192;20.900;2023-02-28T01:24:21;21.33;;;13.15;;
22284;SDS011;11311;52.192;20.900;2023-02-28T01:26:50;15.55;;;11.45;;
22284;SDS011;11311;52.192;20.900;2023-02-28T01:29:20;19.80;;;12.23;;
22284;SDS011;11311;52.192;20.900;2023-02-28T01:31:51;19.58;;;12.50;;
22284;SDS011;11311;52.192;20.900;2023-02-28T01:34:21;17.83;;;12.02;;
22284;SDS011;11311;52.192;20.900;2023-02-28T01:36:52;18.95;;;12.93;;
22284;SDS011;11311;52.192;20.900;2023-02-28T01:39:21;21.80;;;12.13;;
22284;SDS011;11311;52.192;20.900;2023-02-28T01:41:50;19.20;;;9.75;;
22284;SDS011;11311;52.192;20.900;2023-02-28T01:47:27;18.75;;;12.40;;
22284;SDS011;11311;52.192;20.900;2023-02-28T01:49:59;24.27;;;14.18;;
22284;SDS011;11311;52.192;20.900;2023-02-28T01:55:00;20.45;;;12.75;;
22284;SDS011;11311;52.192;20.900;2023-02-28T01:57:32;18.10;;;12.65;;
22284;SDS011;11311;52.192;20.900;2023-02-28T02:00:06;21.17;;;13.93;;
22284;SDS011;11311;52.192;20.900;2023-02-28T02:02:40;26.50;;;14.15;;
22284;SDS011;11311;52.192;20.900;2023-02-28T02:05:12;22.33;;;13.10;;
22284;SDS011;11311;52.192;20.900;2023-02-28T02:07:45;22.58;;;13.77;;
22284;SDS011;11311;52.192;20.900;2023-02-28T02:10:17;21.92;;;13.73;;
22284;SDS011;11311;52.192;20.900;2023-02-28T02:13:02;22.52;;;13.90;;
22284;SDS011;11311;52.192;20.900;2023-02-28T02:15:39;23.55;;;14.02;;
22284;SDS011;11311;52.192;20.900;2023-02-28T02:18:14;23.63;;;14.63;;
22284;SDS011;11311;52.192;20.900;2023-02-28T02:20:54;19.75;;;13.07;;
22284;SDS011;11311;52.192;20.900;2023-02-28T02:23:46;40.50;;;12.60;;
22284;SDS011;11311;52.192;20.900;2023-02-28T02:26:30;24.92;;;14.95;;
22284;SDS011;11311;52.192;20.900;2023-02-28T02:29:19;26.67;;;14.23;;
22284;SDS011;11311;52.192;20.900;2023-02-28T02:35:00;30.45;;;13.93;;
22284;SDS011;11311;52.192;20.900;2023-02-28T02:37:38;22.25;;;13.70;;
22284;SDS011;11311;52.192;20.900;2023-02-28T02:40:10;21.65;;;13.25;;
22284;SDS011;11311;52.192;20.900;2023-02-28T02:42:45;24.52;;;14.48;;
22284;SDS011;11311;52.192;20.900;2023-02-28T02:45:21;24.10;;;14.85;;
22284;SDS011;11311;52.192;20.900;2023-02-28T02:47:54;24.80;;;14.80;;
22284;SDS011;11311;52.192;20.900;2023-02-28T02:50:29;28.00;;;15.23;;
22284;SDS011;11311;52.192;20.900;2023-02-28T02:53:00;27.63;;;15.40;;
22284;SDS011;11311;52.192;20.900;2023-02-28T02:55:31;24.77;;;14.85;;
22284;SDS011;11311;52.192;20.900;2023-02-28T02:58:03;24.30;;;14.15;;
22284;SDS011;11311;52.192;20.900;2023-02-28T03:00:35;20.33;;;13.20;;
22284;SDS011;11311;52.192;20.900;2023-02-28T03:03:09;26.20;;;15.18;;
22284;SDS011;11311;52.192;20.900;2023-02-28T03:05:44;26.98;;;14.82;;
22284;SDS011;11311;52.192;20.900;2023-02-28T03:08:15;25.52;;;15.45;;
22284;SDS011;11311;52.192;20.900;2023-02-28T03:10:48;25.15;;;13.63;;
22284;SDS011;11311;52.192;20.900;2023-02-28T03:16:31;25.58;;;14.57;;
22284;SDS011;11311;52.192;20.900;2023-02-28T03:19:24;27.50;;;15.25;;
22284;SDS011;11311;52.192;20.900;2023-02-28T03:22:08;21.55;;;13.77;;
22284;SDS011;11311;52.192;20.900;2023-02-28T03:24:46;23.90;;;13.73;;
22284;SDS011;11311;52.192;20.900;2023-02-28T03:27:21;22.13;;;13.63;;
22284;SDS011;11311;52.192;20.900;2023-02-28T03:29:55;28.05;;;15.07;;
22284;SDS011;11311;52.192;20.900;2023-02-28T03:32:29;21.23;;;13.40;;
22284;SDS011;11311;52.192;20.900;2023-02-28T03:35:04;22.05;;;13.63;;
22284;SDS011;11311;52.192;20.900;2023-02-28T03:37:38;20.33;;;13.65;;
22284;SDS011;11311;52.192;20.900;2023-02-28T03:40:10;21.83;;;13.77;;
22284;SDS011;11311;52.192;20.900;2023-02-28T03:42:41;18.38;;;12.27;;
22284;SDS011;11311;52.192;20.900;2023-02-28T03:45:13;23.23;;;14.18;;
22284;SDS011;11311;52.192;20.900;2023-02-28T03:47:46;21.00;;;12.68;;
22284;SDS011;11311;52.192;20.900;2023-02-28T03:50:20;18.70;;;11.52;;
22284;SDS011;11311;52.192;20.900;2023-02-28T03:52:52;19.23;;;13.00;;
22284;SDS011;11311;52.192;20.900;2023-02-28T03:55:32;19.10;;;12.43;;
22284;SDS011;11311;52.192;20.900;2023-02-28T03:58:07;15.27;;;11.48;;
22284;SDS011;11311;52.192;20.900;2023-02-28T04:00:43;15.32;;;10.88;;
22284;SDS011;11311;52.192;20.900;2023-02-28T04:03:14;21.20;;;11.93;;
22284;SDS011;11311;52.192;20.900;2023-02-28T04:05:48;11.50;;;7.97;;
22284;SDS011;11311;52.192;20.900;2023-02-28T04:08:21;21.00;;;10.90;;
22284;SDS011;11311;52.192;20.900;2023-02-28T04:10:52;21.17;;;12.65;;
22284;SDS011;11311;52.192;20.900;2023-02-28T04:13:24;27.60;;;16.65;;
22284;SDS011;11311;52.192;20.900;2023-02-28T04:15:53;15.53;;;10.03;;
22284;SDS011;11311;52.192;20.900;2023-02-28T04:18:23;20.08;;;11.40;;
22284;SDS011;11311;52.192;20.900;2023-02-28T04:20:52;13.80;;;10.75;;
22284;SDS011;11311;52.192;20.900;2023-02-28T04:23:23;18.27;;;11.10;;
22284;SDS011;11311;52.192;20.900;2023-02-28T04:25:54;20.92;;;12.93;;
22284;SDS011;11311;52.192;20.900;2023-02-28T04:28:23;20.20;;;12.52;;
22284;SDS011;11311;52.192;20.900;2023-02-28T04:30:56;11.90;;;8.35;;
22284;SDS011;11311;52.192;20.900;2023-02-28T04:33:25;16.08;;;11.80;;
22284;SDS011;11311;52.192;20.900;2023-02-28T04:35:58;20.50;;;12.18;;
22284;SDS011;11311;52.192;20.900;2023-02-28T04:38:35;18.35;;;11.48;;
22284;SDS011;11311;52.192;20.900;2023-02-28T04:41:05;18.63;;;12.55;;
22284;SDS011;11311;52.192;20.900;2023-02-28T04:43:34;16.08;;;11.18;;
22284;SDS011;11311;52.192;20.900;2023-02-28T04:46:05;18.38;;;13.13;;
22284;SDS011;11311;52.192;20.900;2023-02-28T04:48:38;21.55;;;13.77;;
22284;SDS011;11311;52.192;20.900;2023-02-28T04:51:08;19.67;;;13.93;;
22284;SDS011;11311;52.192;20.900;2023-02-28T04:53:41;21.23;;;14.27;;
22284;SDS011;11311;52.192;20.900;2023-02-28T04:56:11;24.40;;;15.52;;
22284;SDS011;11311;52.192;20.900;2023-02-28T04:58:41;18.90;;;14.68;;
22284;SDS011;11311;52.192;20.900;2023-02-28T05:01:17;16.05;;;10.80;;
22284;SDS011;11311;52.192;20.900;2023-02-28T05:03:49;25.52;;;15.93;;
22284;SDS011;11311;52.192;20.900;2023-02-28T05:06:19;24.30;;;15.52;;
22284;SDS011;11311;52.192;20.900;2023-02-28T05:08:50;21.15;;;14.60;;
22284;SDS011;11311;52.192;20.900;2023-02-28T05:11:21;26.23;;;15.93;;
22284;SDS011;11311;52.192;20.900;2023-02-28T05:13:52;31.27;;;16.10;;
22284;SDS011;11311;52.192;20.900;2023-02-28T05:16:22;25.17;;;15.98;;
22284;SDS011;11311;52.192;20.900;2023-02-28T05:18:51;16.97;;;11.00;;
22284;SDS011;11311;52.192;20.900;2023-02-28T05:21:26;24.98;;;14.90;;
22284;SDS011;11311;52.192;20.900;2023-02-28T05:23:58;22.27;;;15.27;;
22284;SDS011;11311;52.192;20.900;2023-02-28T05:26:29;23.42;;;15.63;;
22284;SDS011;11311;52.192;20.900;2023-02-28T05:28:59;23.67;;;15.02;;
22284;SDS011;11311;52.192;20.900;2023-02-28T05:31:28;30.57;;;17.43;;
22284;SDS011;11311;52.192;20.900;2023-02-28T05:33:58;23.10;;;15.27;;
22284;SDS011;11311;52.192;20.900;2023-02-28T05:36:27;32.65;;;17.40;;
22284;SDS011;11311;52.192;20.900;2023-02-28T05:38:58;31.40;;;16.48;;
22284;SDS011;11311;52.192;20.900;2023-02-28T05:41:27;32.35;;;16.13;;
22284;SDS011;11311;52.192;20.900;2023-02-28T05:43:57;34.45;;;17.80;;
22284;SDS011;11311;52.192;20.900;2023-02-28T05:46:26;23.88;;;16.20;;
22284;SDS011;11311;52.192;20.900;2023-02-28T05:48:55;24.00;;;12.95;;
22284;SDS011;11311;52.192;20.900;2023-02-28T05:51:27;30.45;;;16.08;;
22284;SDS011;11311;52.192;20.900;2023-02-28T05:54:02;28.00;;;17.02;;
22284;SDS011;11311;52.192;20.900;2023-02-28T05:56:31;28.83;;;17.48;;
22284;SDS011;11311;52.192;20.900;2023-02-28T05:59:02;27.15;;;17.48;;
22284;SDS011;11311;52.192;20.900;2023-02-28T06:01:32;29.58;;;15.88;;
22284;SDS011;11311;52.192;20.900;2023-02-28T06:04:03;21.42;;;14.43;;
22284;SDS011;11311;52.192;20.900;2023-02-28T06:06:33;26.08;;;14.90;;
22284;SDS011;11311;52.192;20.900;2023-02-28T06:09:06;32.10;;;15.52;;
22284;SDS011;11311;52.192;20.900;2023-02-28T06:11:35;23.48;;;14.30;;
22284;SDS011;11311;52.192;20.900;2023-02-28T06:14:06;25.08;;;14.82;;
22284;SDS011;11311;52.192;20.900;2023-02-28T06:16:35;25.48;;;14.73;;
22284;SDS011;11311;52.192;20.900;2023-02-28T06:19:05;24.50;;;13.93;;
22284;SDS011;11311;52.192;20.900;2023-02-28T06:21:34;21.30;;;11.67;;
22284;SDS011;11311;52.192;20.900;2023-02-28T06:24:07;22.52;;;13.82;;
22284;SDS011;11311;52.192;20.900;2023-02-28T06:26:36;29.80;;;14.35;;
22284;SDS011;11311;52.192;20.900;2023-02-28T06:29:06;25.53;;;13.27;;
22284;SDS011;11311;52.192;20.900;2023-02-28T06:31:35;26.98;;;13.68;;
22284;SDS011;11311;52.192;20.900;2023-02-28T06:36:34;21.85;;;12.90;;
22284;SDS011;11311;52.192;20.900;2023-02-28T06:39:06;20.58;;;14.32;;
22284;SDS011;11311;52.192;20.900;2023-02-28T06:41:36;19.27;;;11.60;;
22284;SDS011;11311;52.192;20.900;2023-02-28T06:44:21;22.10;;;12.40;;
22284;SDS011;11311;52.192;20.900;2023-02-28T06:46:53;19.90;;;11.88;;
22284;SDS011;11311;52.192;20.900;2023-02-28T06:49:22;21.42;;;11.55;;
22284;SDS011;11311;52.192;20.900;2023-02-28T06:51:51;20.67;;;10.75;;
22284;SDS011;11311;52.192;20.900;2023-02-28T06:54:23;17.88;;;9.48;;
22284;SDS011;11311;52.192;20.900;2023-02-28T06:56:53;17.88;;;9.52;;
22284;SDS011;11311;52.192;20.900;2023-02-28T06:59:25;18.00;;;10.60;;
22284;SDS011;11311;52.192;20.900;2023-02-28T07:01:53;16.77;;;10.45;;
22284;SDS011;11311;52.192;20.900;2023-02-28T07:04:23;19.87;;;10.67;;
22284;SDS011;11311;52.192;20.900;2023-02-28T07:06:54;21.65;;;10.27;;
22284;SDS011;11311;52.192;20.900;2023-02-28T07:11:57;19.15;;;9.55;;
22284;SDS011;11311;52.192;20.900;2023-02-28T07:14:27;12.13;;;7.95;;
22284;SDS011;11311;52.192;20.900;2023-02-28T07:16:56;15.82;;;8.95;;
22284;SDS011;11311;52.192;20.900;2023-02-28T07:19:25;13.20;;;7.43;;
22284;SDS011;11311;52.192;20.900;2023-02-28T07:21:55;15.90;;;7.35;;
22284;SDS011;11311;52.192;20.900;2023-02-28T07:24:26;12.63;;;7.85;;
22284;SDS011;11311;52.192;20.900;2023-02-28T07:26:56;13.18;;;7.82;;
22284;SDS011;11311;52.192;20.900;2023-02-28T07:29:26;11.93;;;7.47;;
22284;SDS011;11311;52.192;20.900;2023-02-28T07:31:56;11.77;;;7.43;;
22284;SDS011;11311;52.192;20.900;2023-02-28T07:34:24;8.98;;;6.75;;
22284;SDS011;11311;52.192;20.900;2023-02-28T07:36:54;9.25;;;6.45;;
22284;SDS011;11311;52.192;20.900;2023-02-28T07:39:23;10.20;;;7.63;;
22284;SDS011;11311;52.192;20.900;2023-02-28T07:41:54;11.60;;;10.02;;
22284;SDS011;11311;52.192;20.900;2023-02-28T07:44:25;12.73;;;9.57;;
22284;SDS011;11311;52.192;20.900;2023-02-28T07:46:55;16.75;;;12.25;;
22284;SDS011;11311;52.192;20.900;2023-02-28T07:49:24;14.85;;;7.97;;
22284;SDS011;11311;52.192;20.900;2023-02-28T07:51:54;22.10;;;12.00;;
22284;SDS011;11311;52.192;20.900;2023-02-28T07:54:23;18.63;;;12.02;;
22284;SDS011;11311;52.192;20.900;2023-02-28T07:56:54;16.10;;;10.88;;
22284;SDS011;11311;52.192;20.900;2023-02-28T07:59:23;14.90;;;9.88;;
22284;SDS011;11311;52.192;20.900;2023-02-28T08:01:52;13.30;;;7.78;;
22284;SDS011;11311;52.192;20.900;2023-02-28T08:04:21;11.02;;;6.57;;
22284;SDS011;11311;52.192;20.900;2023-02-28T08:06:50;13.48;;;7.75;;
22284;SDS011;11311;52.192;20.900;2023-02-28T08:09:20;16.38;;;12.43;;
22284;SDS011;11311;52.192;20.900;2023-02-28T08:11:50;14.10;;;9.40;;
22284;SDS011;11311;52.192;20.900;2023-02-28T08:14:20;12.77;;;8.13;;
22284;SDS011;11311;52.192;20.900;2023-02-28T08:19:18;21.83;;;13.88;;
22284;SDS011;11311;52.192;20.900;2023-02-28T08:21:47;15.18;;;8.65;;
22284;SDS011;11311;52.192;20.900;2023-02-28T08:24:16;17.20;;;7.75;;
22284;SDS011;11311;52.192;20.900;2023-02-28T08:26:46;22.48;;;9.30;;
22284;SDS011;11311;52.192;20.900;2023-02-28T08:29:15;12.68;;;8.32;;
22284;SDS011;11311;52.192;20.900;2023-02-28T08:31:45;12.10;;;8.70;;
22284;SDS011;11311;52.192;20.900;2023-02-28T08:34:15;15.82;;;7.85;;
22284;SDS011;11311;52.192;20.900;2023-02-28T08:39:14;16.85;;;8.07;;
22284;SDS011;11311;52.192;20.900;2023-02-28T08:41:43;9.70;;;7.82;;
22284;SDS011;11311;52.192;20.900;2023-02-28T08:44:17;12.43;;;8.13;;
22284;SDS011;11311;52.192;20.900;2023-02-28T08:46:47;16.58;;;7.70;;
22284;SDS011;11311;52.192;20.900;2023-02-28T08:49:16;14.65;;;9.43;;
22284;SDS011;11311;52.192;20.900;2023-02-28T08:51:45;13.07;;;10.30;;
22284;SDS011;11311;52.192;20.900;2023-02-28T08:54:15;15.35;;;9.65;;
22284;SDS011;11311;52.192;20.900;2023-02-28T08:56:46;10.43;;;8.52;;
22284;SDS011;11311;52.192;20.900;2023-02-28T08:59:15;9.23;;;7.47;;
22284;SDS011;11311;52.192;20.900;2023-02-28T09:01:44;11.45;;;7.82;;
22284;SDS011;11311;52.192;20.900;2023-02-28T09:04:15;10.90;;;8.23;;
22284;SDS011;11311;52.192;20.900;2023-02-28T09:06:47;13.73;;;8.55;;
22284;SDS011;11311;52.192;20.900;2023-02-28T09:09:17;9.48;;;7.65;;
22284;SDS011;11311;52.192;20.900;2023-02-28T09:11:46;10.70;;;7.50;;
22284;SDS011;11311;52.192;20.900;2023-02-28T09:14:15;9.88;;;8.07;;
22284;SDS011;11311;52.192;20.900;2023-02-28T09:16:44;12.50;;;8.43;;
22284;SDS011;11311;52.192;20.900;2023-02-28T09:19:15;9.98;;;7.60;;
22284;SDS011;11311;52.192;20.900;2023-02-28T09:21:44;14.45;;;8.02;;
22284;SDS011;11311;52.192;20.900;2023-02-28T09:24:13;11.98;;;7.90;;
22284;SDS011;11311;52.192;20.900;2023-02-28T09:26:42;10.65;;;7.68;;
22284;SDS011;11311;52.192;20.900;2023-02-28T09:29:29;9.90;;;7.72;;
22284;SDS011;11311;52.192;20.900;2023-02-28T09:31:58;13.13;;;7.50;;
22284;SDS011;11311;52.192;20.900;2023-02-28T09:34:29;18.33;;;8.48;;
22284;SDS011;11311;52.192;20.900;2023-02-28T09:36:58;9.85;;;6.93;;
22284;SDS011;11311;52.192;20.900;2023-02-28T09:39:27;9.68;;;8.18;;
22284;SDS011;11311;52.192;20.900;2023-02-28T09:41:58;9.70;;;7.83;;
22284;SDS011;11311;52.192;20.900;2023-02-28T09:44:29;15.60;;;8.65;;
22284;SDS011;11311;52.192;20.900;2023-02-28T09:47:00;9.93;;;7.90;;
22284;SDS011;11311;52.192;20.900;2023-02-28T09:49:37;10.85;;;7.93;;
22284;SDS011;11311;52.192;20.900;2023-02-28T09:52:10;16.55;;;8.07;;
22284;SDS011;11311;52.192;20.900;2023-02-28T09:54:40;10.73;;;8.20;;
22284;SDS011;11311;52.192;20.900;2023-02-28T09:59:45;8.77;;;7.88;;
22284;SDS011;11311;52.192;20.900;2023-02-28T10:05:17;14.68;;;8.57;;
22284;SDS011;11311;52.192;20.900;2023-02-28T10:07:58;17.48;;;10.02;;
22284;SDS011;11311;52.192;20.900;2023-02-28T10:10:33;13.88;;;8.93;;
22284;SDS011;11311;52.192;20.900;2023-02-28T10:13:11;14.07;;;9.95;;
22284;SDS011;11311;52.192;20.900;2023-02-28T10:15:43;11.32;;;9.15;;
22284;SDS011;11311;52.192;20.900;2023-02-28T10:18:14;10.88;;;8.73;;
22284;SDS011;11311;52.192;20.900;2023-02-28T10:20:49;12.95;;;10.05;;
22284;SDS011;11311;52.192;20.900;2023-02-28T10:23:21;14.45;;;9.38;;
22284;SDS011;11311;52.192;20.900;2023-02-28T10:25:53;12.15;;;9.15;;
22284;SDS011;11311;52.192;20.900;2023-02-28T10:28:24;15.63;;;10.32;;
22284;SDS011;11311;52.192;20.900;2023-02-28T10:33:23;10.85;;;9.52;;
22284;SDS011;11311;52.192;20.900;2023-02-28T10:35:55;12.52;;;9.57;;
22284;SDS011;11311;52.192;20.900;2023-02-28T10:38:25;14.07;;;9.25;;
22284;SDS011;11311;52.192;20.900;2023-02-28T10:41:03;16.38;;;9.52;;
22284;SDS011;11311;52.192;20.900;2023-02-28T10:43:34;13.50;;;10.18;;
22284;SDS011;11311;52.192;20.900;2023-02-28T10:46:04;13.77;;;9.88;;
22284;SDS011;11311;52.192;20.900;2023-02-28T10:48:43;13.80;;;9.35;;
22284;SDS011;11311;52.192;20.900;2023-02-28T10:51:17;13.25;;;10.38;;
22284;SDS011;11311;52.192;20.900;2023-02-28T10:53:48;13.68;;;9.98;;
22284;SDS011;11311;52.192;20.900;2023-02-28T10:56:32;13.88;;;9.13;;
22284;SDS011;11311;52.192;20.900;2023-02-28T10:59:03;13.40;;;9.95;;
22284;SDS011;11311;52.192;20.900;2023-02-28T11:01:47;19.20;;;10.07;;
22284;SDS011;11311;52.192;20.900;2023-02-28T11:04:23;13.57;;;9.55;;
22284;SDS011;11311;52.192;20.900;2023-02-28T11:07:05;11.43;;;7.90;;
22284;SDS011;11311;52.192;20.900;2023-02-28T11:09:36;9.43;;;7.88;;
22284;SDS011;11311;52.192;20.900;2023-02-28T11:12:17;8.40;;;7.47;;
22284;SDS011;11311;52.192;20.900;2023-02-28T11:14:49;10.95;;;8.60;;
22284;SDS011;11311;52.192;20.900;2023-02-28T11:17:20;10.35;;;7.43;;
22284;SDS011;11311;52.192;20.900;2023-02-28T11:19:53;10.82;;;7.25;;
22284;SDS011;11311;52.192;20.900;2023-02-28T11:22:26;9.52;;;7.55;;
22284;SDS011;11311;52.192;20.900;2023-02-28T11:24:57;9.10;;;7.70;;
22284;SDS011;11311;52.192;20.900;2023-02-28T11:27:41;9.57;;;8.20;;
22284;SDS011;11311;52.192;20.900;2023-02-28T11:33:22;9.68;;;7.50;;
22284;SDS011;11311;52.192;20.900;2023-02-28T11:35:52;9.63;;;7.47;;
22284;SDS011;11311;52.192;20.900;2023-02-28T11:38:28;9.23;;;7.20;;
22284;SDS011;11311;52.192;20.900;2023-02-28T11:41:04;9.98;;;7.22;;
22284;SDS011;11311;52.192;20.900;2023-02-28T11:43:39;10.50;;;7.65;;
22284;SDS011;11311;52.192;20.900;2023-02-28T11:46:20;12.07;;;7.65;;
22284;SDS011;11311;52.192;20.900;2023-02-28T11:48:57;11.82;;;8.43;;
22284;SDS011;11311;52.192;20.900;2023-02-28T11:51:31;11.40;;;8.13;;
22284;SDS011;11311;52.192;20.900;2023-02-28T11:54:15;14.90;;;8.50;;
22284;SDS011;11311;52.192;20.900;2023-02-28T11:56:55;10.57;;;8.10;;
22284;SDS011;11311;52.192;20.900;2023-02-28T11:59:30;9.65;;;7.93;;
22284;SDS011;11311;52.192;20.900;2023-02-28T12:02:17;10.60;;;8.43;;
22284;SDS011;11311;52.192;20.900;2023-02-28T12:07:31;9.40;;;8.05;;
22284;SDS011;11311;52.192;20.900;2023-02-28T12:10:09;9.90;;;8.13;;
22284;SDS011;11311;52.192;20.900;2023-02-28T12:12:47;10.10;;;7.97;;
22284;SDS011;11311;52.192;20.900;2023-02-28T12:15:28;9.23;;;7.70;;
22284;SDS011;11311;52.192;20.900;2023-02-28T12:18:10;10.38;;;8.15;;
22284;SDS011;11311;52.192;20.900;2023-02-28T12:20:48;9.38;;;7.95;;
22284;SDS011;11311;52.192;20.900;2023-02-28T12:26:16;12.27;;;8.55;;
22284;SDS011;11311;52.192;20.900;2023-02-28T12:28:49;9.48;;;8.48;;
22284;SDS011;11311;52.192;20.900;2023-02-28T12:31:20;13.90;;;9.00;;
22284;SDS011;11311;52.192;20.900;2023-02-28T12:33:53;13.25;;;9.20;;
22284;SDS011;11311;52.192;20.900;2023-02-28T12:36:25;14.30;;;9.68;;
22284;SDS011;11311;52.192;20.900;2023-02-28T12:38:56;15.18;;;9.93;;
22284;SDS011;11311;52.192;20.900;2023-02-28T12:41:33;10.75;;;9.57;;
22284;SDS011;11311;52.192;20.900;2023-02-28T12:44:07;14.35;;;9.57;;
22284;SDS011;11311;52.192;20.900;2023-02-28T12:46:41;14.10;;;9.25;;
22284;SDS011;11311;52.192;20.900;2023-02-28T12:49:14;11.18;;;9.40;;
22284;SDS011;11311;52.192;20.900;2023-02-28T12:51:44;16.23;;;9.23;;
22284;SDS011;11311;52.192;20.900;2023-02-28T12:54:16;13.00;;;9.88;;
22284;SDS011;11311;52.192;20.900;2023-02-28T12:56:53;11.70;;;7.97;;
22284;SDS011;11311;52.192;20.900;2023-02-28T12:59:25;11.35;;;9.45;;
22284;SDS011;11311;52.192;20.900;2023-02-28T13:02:02;12.20;;;9.93;;
22284;SDS011;11311;52.192;20.900;2023-02-28T13:04:52;13.38;;;9.55;;
22284;SDS011;11311;52.192;20.900;2023-02-28T13:07:33;11.52;;;9.43;;
22284;SDS011;11311;52.192;20.900;2023-02-28T13:10:12;12.40;;;10.43;;
22284;SDS011;11311;52.192;20.900;2023-02-28T13:12:48;15.48;;;10.57;;
22284;SDS011;11311;52.192;20.900;2023-02-28T13:15:19;17.35;;;10.15;;
22284;SDS011;11311;52.192;20.900;2023-02-28T13:17:51;14.32;;;9.20;;
22284;SDS011;11311;52.192;20.900;2023-02-28T13:20:23;11.55;;;10.35;;
22284;SDS011;11311;52.192;20.900;2023-02-28T13:22:54;11.45;;;9.23;;
22284;SDS011;11311;52.192;20.900;2023-02-28T13:34:46;13.05;;;9.10;;
22284;SDS011;11311;52.192;20.900;2023-02-28T13:37:41;12.13;;;9.65;;
22284;SDS011;11311;52.192;20.900;2023-02-28T13:40:28;11.70;;;10.48;;
22284;SDS011;11311;52.192;20.900;2023-02-28T13:43:07;12.75;;;10.43;;
22284;SDS011;11311;52.192;20.900;2023-02-28T13:45:38;15.80;;;10.18;;
22284;SDS011;11311;52.192;20.900;2023-02-28T13:48:17;11.75;;;10.18;;
22284;SDS011;11311;52.192;20.900;2023-02-28T13:50:51;16.48;;;10.23;;
22284;SDS011;11311;52.192;20.900;2023-02-28T13:56:23;13.95;;;10.38;;
22284;SDS011;11311;52.192;20.900;2023-02-28T13:59:02;16.88;;;10.07;;
22284;SDS011;11311;52.192;20.900;2023-02-28T14:01:38;18.38;;;10.35;;
22284;SDS011;11311;52.192;20.900;2023-02-28T14:04:21;16.70;;;9.77;;
22284;SDS011;11311;52.192;20.900;2023-02-28T14:07:04;13.20;;;9.98;;
22284;SDS011;11311;52.192;20.900;2023-02-28T14:09:35;13.63;;;9.88;;
22284;SDS011;11311;52.192;20.900;2023-02-28T14:15:26;14.05;;;9.88;;
22284;SDS011;11311;52.192;20.900;2023-02-28T14:18:15;14.18;;;11.43;;
22284;SDS011;11311;52.192;20.900;2023-02-28T14:20:47;14.48;;;9.90;;
22284;SDS011;11311;52.192;20.900;2023-02-28T14:23:23;13.07;;;9.70;;
22284;SDS011;11311;52.192;20.900;2023-02-28T14:26:01;12.85;;;9.70;;
22284;SDS011;11311;52.192;20.900;2023-02-28T14:28:42;14.10;;;8.82;;
22284;SDS011;11311;52.192;20.900;2023-02-28T14:31:17;17.67;;;9.57;;
22284;SDS011;11311;52.192;20.900;2023-02-28T14:34:05;12.80;;;10.35;;
22284;SDS011;11311;52.192;20.900;2023-02-28T14:36:43;12.73;;;10.05;;
22284;SDS011;11311;52.192;20.900;2023-02-28T14:39:14;11.77;;;9.18;;
22284;SDS011;11311;52.192;20.900;2023-02-28T14:41:48;11.23;;;8.95;;
22284;SDS011;11311;52.192;20.900;2023-02-28T14:44:18;15.48;;;10.65;;
22284;SDS011;11311;52.192;20.900;2023-02-28T14:46:48;14.43;;;10.50;;
22284;SDS011;11311;52.192;20.900;2023-02-28T14:49:19;13.25;;;9.40;;
22284;SDS011;11311;52.192;20.900;2023-02-28T14:51:50;15.85;;;10.10;;
22284;SDS011;11311;52.192;20.900;2023-02-28T14:54:21;12.40;;;9.52;;
22284;SDS011;11311;52.192;20.900;2023-02-28T14:56:52;14.30;;;9.23;;
22284;SDS011;11311;52.192;20.900;2023-02-28T14:59:28;12.00;;;9.47;;
22284;SDS011;11311;52.192;20.900;2023-02-28T15:02:15;13.82;;;9.73;;
22284;SDS011;11311;52.192;20.900;2023-02-28T15:04:57;13.88;;;9.85;;
22284;SDS011;11311;52.192;20.900;2023-02-28T15:07:28;14.27;;;10.88;;
22284;SDS011;11311;52.192;20.900;2023-02-28T15:10:08;13.20;;;10.65;;
22284;SDS011;11311;52.192;20.900;2023-02-28T15:12:39;15.60;;;11.23;;
22284;SDS011;11311;52.192;20.900;2023-02-28T15:15:14;15.45;;;11.45;;
22284;SDS011;11311;52.192;20.900;2023-02-28T15:17:46;16.25;;;10.82;;
22284;SDS011;11311;52.192;20.900;2023-02-28T15:20:18;15.90;;;10.35;;
22284;SDS011;11311;52.192;20.900;2023-02-28T15:22:48;20.83;;;11.77;;
22284;SDS011;11311;52.192;20.900;2023-02-28T15:25:21;16.67;;;11.77;;
22284;SDS011;11311;52.192;20.900;2023-02-28T15:27:51;16.98;;;11.68;;
22284;SDS011;11311;52.192;20.900;2023-02-28T15:30:23;18.33;;;12.38;;
22284;SDS011;11311;52.192;20.900;2023-02-28T15:33:01;19.83;;;11.57;;
22284;SDS011;11311;52.192;20.900;2023-02-28T15:35:32;18.80;;;12.27;;
22284;SDS011;11311;52.192;20.900;2023-02-28T15:38:02;18.10;;;12.50;;
22284;SDS011;11311;52.192;20.900;2023-02-28T15:40:35;20.13;;;12.10;;
22284;SDS011;11311;52.192;20.900;2023-02-28T15:43:07;20.77;;;14.00;;